createdAt,value
2023-02-09T00:02:46.732Z,10.43
2023-02-09T00:06:50.479Z,9.60
2023-02-09T00:10:53.452Z,10.83
2023-02-09T00:14:58.276Z,9.50
2023-02-09T00:19:01.265Z,10.33
2023-02-09T00:23:04.296Z,11.23
2023-02-09T00:27:07.266Z,10.13
2023-02-09T00:31:13.690Z,10.13
2023-02-09T00:35:17.267Z,10.37
2023-02-09T00:39:20.305Z,10.40
2023-02-09T00:43:23.305Z,10.13
2023-02-09T00:47:30.301Z,10.37
2023-02-09T00:51:33.452Z,10.37
2023-02-09T00:55:38.481Z,9.83
2023-02-09T00:59:42.830Z,10.33
2023-02-09T01:03:47.358Z,10.33
2023-02-09T01:07:50.948Z,9.60
2023-02-09T01:11:54.030Z,9.80
2023-02-09T01:15:57.064Z,9.83
2023-02-09T01:20:01.911Z,10.13
2023-02-09T01:24:05.338Z,9.73
2023-02-09T01:28:08.451Z,10.10
2023-02-09T01:32:11.648Z,10.67
2023-02-09T01:36:16.288Z,11.13
2023-02-09T01:40:19.318Z,10.37
2023-02-09T01:44:59.561Z,10.97
2023-02-09T01:49:09.418Z,10.80
2023-02-09T01:53:14.299Z,11.43
2023-02-09T01:57:23.737Z,11.27
2023-02-09T02:01:27.805Z,12.23
2023-02-09T02:05:32.873Z,11.43
2023-02-09T02:09:37.480Z,12.27
2023-02-09T02:13:40.635Z,11.67
2023-02-09T02:17:59.304Z,10.87
2023-02-09T02:22:43.428Z,11.83
2023-02-09T02:26:56.374Z,11.27
2023-02-09T02:31:29.715Z,10.63
2023-02-09T02:35:38.873Z,10.03
2023-02-09T02:39:51.078Z,10.90
2023-02-09T02:44:02.025Z,10.53
2023-02-09T02:48:14.391Z,10.80
2023-02-09T02:52:18.992Z,10.73
2023-02-09T02:56:26.022Z,11.50
2023-02-09T03:00:33.759Z,10.97
2023-02-09T03:04:40.198Z,11.37
2023-02-09T03:08:52.835Z,11.13
2023-02-09T03:13:09.293Z,12.10
2023-02-09T03:17:26.900Z,11.37
2023-02-09T03:21:42.776Z,12.57
2023-02-09T03:25:52.765Z,11.20
2023-02-09T03:29:59.182Z,11.73
2023-02-09T03:34:02.613Z,12.73
2023-02-09T03:38:07.125Z,12.57
2023-02-09T03:42:12.184Z,12.63
2023-02-09T03:46:15.199Z,11.37
2023-02-09T03:50:18.745Z,12.73
2023-02-09T03:54:22.677Z,13.03
2023-02-09T03:58:27.407Z,11.93
2023-02-09T04:02:30.814Z,12.30
2023-02-09T04:06:34.958Z,13.40
2023-02-09T04:10:37.964Z,13.53
2023-02-09T04:14:42.459Z,13.30
2023-02-09T04:18:45.998Z,13.13
2023-02-09T04:22:49.110Z,13.13
2023-02-09T04:26:52.065Z,13.60
2023-02-09T04:30:57.520Z,13.23
2023-02-09T04:35:00.542Z,13.13
2023-02-09T04:39:03.672Z,13.00
2023-02-09T04:43:07.304Z,14.03
2023-02-09T04:47:11.827Z,13.57
2023-02-09T04:51:14.984Z,13.53
2023-02-09T04:55:18.188Z,12.83
2023-02-09T04:59:35.984Z,13.47
2023-02-09T05:03:40.438Z,12.87
2023-02-09T05:07:43.433Z,12.13
2023-02-09T05:11:46.494Z,12.63
2023-02-09T05:15:49.679Z,12.80
2023-02-09T05:19:54.325Z,12.80
2023-02-09T05:23:57.278Z,12.73
2023-02-09T05:28:00.434Z,12.53
2023-02-09T05:32:03.655Z,12.60
2023-02-09T05:36:09.997Z,12.33
2023-02-09T05:40:13.960Z,13.57
2023-02-09T05:44:17.428Z,12.07
2023-02-09T05:48:20.402Z,12.50
2023-02-09T05:52:25.026Z,12.97
2023-02-09T05:56:28.037Z,11.97
2023-02-09T06:00:31.860Z,11.33
2023-02-09T06:04:36.107Z,11.80
2023-02-09T06:08:40.509Z,11.00
2023-02-09T06:12:43.510Z,11.90
2023-02-09T06:16:46.846Z,11.63
2023-02-09T06:20:49.813Z,11.23
2023-02-09T06:24:54.367Z,11.20
2023-02-09T06:28:57.341Z,11.17
2023-02-09T06:33:00.398Z,10.57
2023-02-09T06:37:03.434Z,11.70
2023-02-09T06:41:07.980Z,11.10
2023-02-09T06:45:11.617Z,10.53
2023-02-09T06:49:14.802Z,11.10
2023-02-09T06:53:18.724Z,10.10
2023-02-09T06:57:23.229Z,10.40
2023-02-09T07:01:26.272Z,10.80
2023-02-09T07:05:29.456Z,10.47
2023-02-09T07:09:32.438Z,11.50
2023-02-09T07:13:37.284Z,11.17
2023-02-09T07:17:40.764Z,11.50
2023-02-09T07:21:43.873Z,11.50
2023-02-09T07:25:46.844Z,11.50
2023-02-09T07:29:51.360Z,11.20
2023-02-09T07:33:55.750Z,11.87
2023-02-09T07:37:58.881Z,11.10
2023-02-09T07:42:02.119Z,11.50
2023-02-09T07:46:25.644Z,11.97
2023-02-09T07:50:28.708Z,11.47
2023-02-09T07:54:31.832Z,11.57
2023-02-09T07:58:34.880Z,11.87
2023-02-09T08:02:39.918Z,11.40
2023-02-09T08:06:46.147Z,11.87
2023-02-09T08:10:49.481Z,11.47
2023-02-09T08:14:52.469Z,10.93
2023-02-09T08:18:59.994Z,11.10
2023-02-09T08:23:08.331Z,11.07
2023-02-09T08:27:11.960Z,11.37
2023-02-09T08:31:17.401Z,10.63
2023-02-09T08:35:22.000Z,11.23
2023-02-09T08:39:25.040Z,12.20
2023-02-09T08:43:28.092Z,11.07
2023-02-09T08:47:31.228Z,11.83
2023-02-09T08:51:35.704Z,11.80
2023-02-09T08:55:39.427Z,11.83
2023-02-09T08:59:42.802Z,11.50
2023-02-09T09:03:45.779Z,10.50
2023-02-09T09:07:50.227Z,10.57
2023-02-09T09:11:53.318Z,10.80
2023-02-09T09:15:56.553Z,10.70
2023-02-09T09:20:00.657Z,11.00
2023-02-09T09:24:05.656Z,10.00
2023-02-09T09:28:09.837Z,10.87
2023-02-09T09:32:14.845Z,9.50
2023-02-09T09:36:17.919Z,9.93
2023-02-09T09:40:25.550Z,9.43
2023-02-09T09:44:33.502Z,9.40
2023-02-09T09:48:43.842Z,7.93
2023-02-09T09:52:50.730Z,8.83
2023-02-09T09:56:55.840Z,8.30
2023-02-09T10:00:59.201Z,8.57
2023-02-09T10:05:11.551Z,8.13
2023-02-09T10:09:27.142Z,9.17
2023-02-09T10:13:36.442Z,8.27
2023-02-09T10:17:39.377Z,7.47
2023-02-09T10:21:42.440Z,7.60
2023-02-09T10:26:04.524Z,7.80
2023-02-09T10:30:20.911Z,7.40
2023-02-09T10:34:31.904Z,6.77
2023-02-09T10:38:35.314Z,7.10
2023-02-09T10:42:41.994Z,6.50
2023-02-09T10:46:47.827Z,6.40
2023-02-09T10:50:53.209Z,7.20
2023-02-09T10:55:00.134Z,6.70
2023-02-09T10:59:15.158Z,6.67
2023-02-09T11:03:21.637Z,6.27
2023-02-09T11:07:31.174Z,7.23
2023-02-09T11:11:37.785Z,6.47
2023-02-09T11:15:46.332Z,7.20
2023-02-09T11:20:20.903Z,7.17
2023-02-09T11:24:38.965Z,6.67
2023-02-09T11:28:51.192Z,7.13
2023-02-09T11:32:59.055Z,7.40
2023-02-09T11:37:16.467Z,7.00
2023-02-09T11:41:47.228Z,7.30
2023-02-09T11:45:51.966Z,6.97
2023-02-09T11:49:59.075Z,7.17
2023-02-09T11:54:08.612Z,6.23
2023-02-09T11:58:26.148Z,5.40
2023-02-09T12:02:46.305Z,5.50
2023-02-09T12:06:51.995Z,5.97
2023-02-09T12:11:09.103Z,5.83
2023-02-09T12:15:16.446Z,6.23
2023-02-09T12:19:29.358Z,5.53
2023-02-09T12:23:33.731Z,5.83
2023-02-09T12:27:40.974Z,5.53
2023-02-09T12:32:14.275Z,5.20
2023-02-09T12:36:30.535Z,5.53
2023-02-09T12:40:37.528Z,5.80
2023-02-09T12:44:55.960Z,5.55
2023-02-09T12:49:21.025Z,5.37
2023-02-09T12:53:36.073Z,5.63
2023-02-09T12:57:54.460Z,5.28
2023-02-09T13:02:27.178Z,6.22
2023-02-09T13:06:40.434Z,5.93
2023-02-09T13:10:47.332Z,5.70
2023-02-09T13:14:52.072Z,5.35
2023-02-09T13:19:03.752Z,5.23
2023-02-09T13:23:20.631Z,6.30
2023-02-09T13:27:25.429Z,5.53
2023-02-09T13:31:35.335Z,5.43
2023-02-09T13:35:58.654Z,6.72
2023-02-09T13:40:03.395Z,5.40
2023-02-09T13:44:20.696Z,5.80
2023-02-09T13:48:25.224Z,5.75
2023-02-09T13:52:36.428Z,5.93
2023-02-09T13:56:42.844Z,5.60
2023-02-09T14:00:49.650Z,6.15
2023-02-09T14:04:57.318Z,5.95
2023-02-09T14:09:03.612Z,5.47
2023-02-09T14:13:18.359Z,5.93
2023-02-09T14:17:26.340Z,5.60
2023-02-09T14:21:34.258Z,5.78
2023-02-09T14:25:40.376Z,6.30
2023-02-09T14:29:47.851Z,5.82
2023-02-09T14:33:53.275Z,6.20
2023-02-09T14:37:58.101Z,6.10
2023-02-09T14:42:18.416Z,5.95
2023-02-09T14:46:21.736Z,5.87
2023-02-09T14:50:25.432Z,6.25
2023-02-09T14:54:30.585Z,5.73
2023-02-09T14:58:35.172Z,5.90
2023-02-09T15:02:38.349Z,5.33
2023-02-09T15:06:45.055Z,5.90
2023-02-09T15:10:53.382Z,5.97
2023-02-09T15:15:00.547Z,5.67
2023-02-09T15:19:05.409Z,6.10
2023-02-09T15:23:08.882Z,5.90
2023-02-09T15:27:16.628Z,5.33
2023-02-09T15:31:21.989Z,5.77
2023-02-09T15:35:27.346Z,5.70
2023-02-09T15:39:31.579Z,5.43
2023-02-09T15:43:51.866Z,5.70
2023-02-09T15:47:58.892Z,5.33
2023-02-09T15:52:02.048Z,6.13
2023-02-09T15:56:06.617Z,5.75
2023-02-09T16:00:17.325Z,6.07
2023-02-09T16:04:21.970Z,5.97
2023-02-09T16:08:27.068Z,6.40
2023-02-09T16:12:30.530Z,5.63
2023-02-09T16:16:33.811Z,6.20
2023-02-09T16:20:39.240Z,6.03
2023-02-09T16:24:45.934Z,6.10
2023-02-09T16:28:49.067Z,5.97
2023-02-09T16:32:53.297Z,6.00
2023-02-09T16:36:57.750Z,5.53
2023-02-09T16:41:00.745Z,6.47
2023-02-09T16:45:03.928Z,6.10
2023-02-09T16:49:06.994Z,6.27
2023-02-09T16:53:18.371Z,6.43
2023-02-09T16:57:23.460Z,6.43
2023-02-09T17:01:26.548Z,6.13
2023-02-09T17:05:32.038Z,5.77
2023-02-09T17:09:36.544Z,6.97
2023-02-09T17:13:39.577Z,6.57
2023-02-09T17:17:48.121Z,6.80
2023-02-09T17:21:51.107Z,6.33
2023-02-09T17:25:56.235Z,6.57
2023-02-09T17:29:59.200Z,6.47
2023-02-09T17:34:04.206Z,5.57
2023-02-09T17:38:07.781Z,6.40
2023-02-09T17:42:22.840Z,6.33
2023-02-09T17:46:25.890Z,6.33
2023-02-09T17:50:29.516Z,6.30
2023-02-09T17:54:33.964Z,6.60
2023-02-09T17:58:38.739Z,6.50
2023-02-09T18:02:41.896Z,6.13
2023-02-09T18:06:45.075Z,6.20
2023-02-09T18:10:48.228Z,6.00
2023-02-09T18:14:53.135Z,6.23
2023-02-09T18:18:56.142Z,5.93
2023-02-09T18:22:59.425Z,6.10
2023-02-09T18:27:02.904Z,6.10
2023-02-09T18:31:08.345Z,6.30
2023-02-09T18:35:18.102Z,5.60
2023-02-09T18:39:21.237Z,5.77
2023-02-09T18:43:24.213Z,5.57
2023-02-09T18:47:28.709Z,5.80
2023-02-09T18:51:32.508Z,5.30
2023-02-09T18:55:36.143Z,6.33
2023-02-09T18:59:40.332Z,6.03
2023-02-09T19:03:44.767Z,5.97
2023-02-09T19:07:47.933Z,5.20
2023-02-09T19:11:50.991Z,5.63
2023-02-09T19:15:54.066Z,5.53
2023-02-09T19:19:59.744Z,5.30
2023-02-09T19:24:02.885Z,5.30
2023-02-09T19:28:06.266Z,6.60
2023-02-09T19:32:09.406Z,5.67
2023-02-09T19:36:13.900Z,5.47
2023-02-09T19:40:21.517Z,5.40
2023-02-09T19:44:24.628Z,5.53
2023-02-09T19:48:27.612Z,6.27
2023-02-09T19:52:34.850Z,5.33
2023-02-09T19:56:38.465Z,4.97
2023-02-09T20:00:41.780Z,5.73
2023-02-09T20:04:45.959Z,5.83
2023-02-09T20:08:50.627Z,5.93
2023-02-09T20:12:53.636Z,5.70
2023-02-09T20:16:56.849Z,5.17
2023-02-09T20:20:59.802Z,5.83
2023-02-09T20:25:04.328Z,4.97
2023-02-09T20:29:07.407Z,5.93
2023-02-09T20:33:11.024Z,6.30
2023-02-09T20:37:14.049Z,5.47
2023-02-09T20:41:19.410Z,5.50
2023-02-09T20:45:39.773Z,5.77
2023-02-09T20:49:43.347Z,4.73
2023-02-09T20:53:49.788Z,6.00
2023-02-09T20:57:57.877Z,5.63
2023-02-09T21:02:14.273Z,6.30
2023-02-09T21:06:22.443Z,5.97
2023-02-09T21:10:31.593Z,5.53
2023-02-09T21:14:43.906Z,5.43
2023-02-09T21:18:46.898Z,6.03
2023-02-09T21:22:50.527Z,6.40
2023-02-09T21:26:53.523Z,5.90
2023-02-09T21:30:58.100Z,6.43
2023-02-09T21:35:01.041Z,6.40
2023-02-09T21:39:04.288Z,5.83
2023-02-09T21:43:07.234Z,6.07
2023-02-09T21:47:11.784Z,6.20
2023-02-09T21:51:14.748Z,5.73
2023-02-09T21:55:18.154Z,6.20
2023-02-09T21:59:21.300Z,6.23
2023-02-09T22:03:26.119Z,5.60
2023-02-09T22:07:29.629Z,7.37
2023-02-09T22:11:32.768Z,6.47
2023-02-09T22:15:35.746Z,6.37
2023-02-09T22:19:40.274Z,5.80
2023-02-09T22:23:43.448Z,5.80
2023-02-09T22:27:46.543Z,6.37
2023-02-09T22:31:49.528Z,5.93
2023-02-09T22:35:54.039Z,6.20
2023-02-09T22:39:57.216Z,7.57
2023-02-09T22:44:02.207Z,7.33
2023-02-09T22:48:05.628Z,7.10
2023-02-09T22:52:10.517Z,6.70
2023-02-09T22:56:13.901Z,7.03
2023-02-09T23:00:17.908Z,6.90
2023-02-09T23:04:21.242Z,7.40
2023-02-09T23:08:25.737Z,6.83
2023-02-09T23:12:28.710Z,7.20
2023-02-09T23:16:32.477Z,6.53
2023-02-09T23:20:35.441Z,7.73
2023-02-09T23:24:39.972Z,6.27
2023-02-09T23:28:43.272Z,7.50
2023-02-09T23:32:46.549Z,7.03
2023-02-09T23:36:49.778Z,7.40
2023-02-09T23:40:54.427Z,7.17
2023-02-09T23:44:57.514Z,8.47
2023-02-09T23:49:00.829Z,7.53
2023-02-09T23:53:03.964Z,7.77
2023-02-09T23:57:08.712Z,7.77
